Smith Island, WA current weather conditions

sailwx.info

Wind from 090 at 5 knots gusting 5

Air temperature 8.0° C
Dewpoint 6.1° C

Last reported at 2019-Nov-14 16:00 UTC.
Time now 2019-Nov-14 16:35 UTC

Location: N 48°19' W 122°50'.
View on Google Maps.

See reports from other nearby stations

  
Tides and Currents Weather Stations Pressure Air Temp Water Temp Dewpoint Dewpoint Depression Visibility Wind Speed Wind Dir Waves Ship Positions
date/time (UTC)wind fromknots sea level pressurealtimeterstation pressurevisibilityair tempwater tempwave heightnotes
2019-Nov-14 16:00 090 5 gusting 5 8.0
2019-Nov-14 15:50 090 5 gusting 5 8.0
2019-Nov-14 15:40 100 5 gusting 5 8.0
2019-Nov-14 15:30 090 4 gusting 5 8.0
2019-Nov-14 15:20 100 5 gusting 5 8.1
2019-Nov-14 15:10 090 4 gusting 5 7.9
2019-Nov-14 15:00 100 1 gusting 4 7.8
2019-Nov-14 14:50 130 2 gusting 4 7.8
2019-Nov-14 14:40 130 2 gusting 4 7.9
2019-Nov-14 14:30 130 4 gusting 4 7.9
2019-Nov-14 14:20 120 4 gusting 5 7.9
2019-Nov-14 14:10 110 4 gusting 5 7.9
2019-Nov-14 14:00 090 5 gusting 5 7.9
2019-Nov-14 13:50 090 5 gusting 6 7.8
2019-Nov-14 13:40 080 4 gusting 5 7.8
2019-Nov-14 13:30 100 2 gusting 4 7.9
2019-Nov-14 13:20 090 4 gusting 5 7.9
2019-Nov-14 13:10 100 4 gusting 5 7.9
2019-Nov-14 13:00 090 4 gusting 4 7.9
2019-Nov-14 12:50 070 2 gusting 4 8.1
2019-Nov-14 12:40 070 4 gusting 5 8.1
2019-Nov-14 12:30 070 4 gusting 5 8.1
2019-Nov-14 12:20 050 5 gusting 5 8.1
2019-Nov-14 12:10 060 4 gusting 5 8.1
2019-Nov-14 12:00 070 4 gusting 5 8.1
2019-Nov-14 11:50 070 5 gusting 6 8.1
2019-Nov-14 11:40 060 6 gusting 7 8.1
2019-Nov-14 11:30 060 6 gusting 7 8.0
2019-Nov-14 11:20 060 6 gusting 6 7.9
2019-Nov-14 11:10 090 5 gusting 6 7.7
2019-Nov-14 11:00 110 4 gusting 5 7.6
2019-Nov-14 10:50 090 4 gusting 5 7.5
2019-Nov-14 10:40 090 4 gusting 5 7.5
2019-Nov-14 10:30 070 2 gusting 4 7.5
2019-Nov-14 10:20 050 4 gusting 5 7.5
2019-Nov-14 10:10 040 4 gusting 5 7.6
2019-Nov-14 10:00 070 2 gusting 4 7.6
2019-Nov-14 09:50 060 5 gusting 6 7.5
2019-Nov-14 09:40 080 2 gusting 4 7.5
2019-Nov-14 09:30 140 1 gusting 2 7.6
2019-Nov-14 09:20 120 2 gusting 5 7.6
2019-Nov-14 09:10 130 5 gusting 6 7.5
2019-Nov-14 09:00 120 5 gusting 6 7.5
2019-Nov-14 08:50 110 6 gusting 6 7.5
2019-Nov-14 08:40 110 6 gusting 6 7.6
2019-Nov-14 08:30 100 6 gusting 6 7.8
2019-Nov-14 08:20 110 6 gusting 6 8.0
2019-Nov-14 08:10 100 6 gusting 6 8.2
2019-Nov-14 08:00 080 5 gusting 6 8.4
2019-Nov-14 07:50 080 2 gusting 4 8.5
2019-Nov-14 07:40 060 2 gusting 4 8.6
2019-Nov-14 07:30 040 1 gusting 4 8.5
2019-Nov-14 07:20 070 0 gusting 1 8.5
2019-Nov-14 07:10 050 1 gusting 2 8.5
2019-Nov-14 07:00 040 2 gusting 4 8.5
2019-Nov-14 06:50 020 1 gusting 2 8.5
2019-Nov-14 06:40 010 0 gusting 1 8.5
2019-Nov-14 06:30 010 2 gusting 2 8.5
2019-Nov-14 06:20 330 1 gusting 1 8.6
2019-Nov-14 06:10 320 1 gusting 2 8.6
2019-Nov-14 06:00 310 2 gusting 2 8.6
2019-Nov-14 05:50 300 2 gusting 2 8.6
2019-Nov-14 05:40 320 2 gusting 4 8.6
2019-Nov-14 05:30 310 2 gusting 2 8.6
2019-Nov-14 05:20 320 2 gusting 4 8.7
2019-Nov-14 05:10 300 4 gusting 4 8.7
2019-Nov-14 05:00 280 4 gusting 5 8.8
2019-Nov-14 04:50 310 4 gusting 5 8.8
2019-Nov-14 04:40 320 4 gusting 5 8.8
2019-Nov-14 04:30 300 5 gusting 6 8.8
2019-Nov-14 04:20 280 6 gusting 6 8.8
2019-Nov-14 04:10 290 6 gusting 6 8.8
2019-Nov-14 04:00 310 6 gusting 6 8.8
2019-Nov-14 03:50 300 6 gusting 6 8.9
2019-Nov-14 03:40 290 5 gusting 6 8.9
2019-Nov-14 03:30 290 5 gusting 6 8.9
2019-Nov-14 03:20 300 5 gusting 5 8.9
2019-Nov-14 03:10 320 6 gusting 6 8.9
2019-Nov-14 03:00 320 5 gusting 6 9.0
2019-Nov-14 02:50 320 5 gusting 5 9.1
2019-Nov-14 02:40 320 5 gusting 6 9.1
2019-Nov-14 02:30 290 4 gusting 5 9.2
2019-Nov-14 02:20 270 2 gusting 4 9.2
2019-Nov-14 02:10 290 4 gusting 4 9.3
2019-Nov-14 02:00 300 2 gusting 4 9.2
2019-Nov-14 01:50 320 4 gusting 5 9.3
2019-Nov-14 01:40 330 4 gusting 5 9.4
2019-Nov-14 01:30 340 5 gusting 6 9.5
2019-Nov-14 01:20 350 5 gusting 6 9.5
2019-Nov-14 01:10 360 5 gusting 6 9.5
2019-Nov-14 01:00 340 5 gusting 5 9.5
2019-Nov-14 00:50 330 6 gusting 6 9.4
2019-Nov-14 00:40 310 7 gusting 8 9.4
2019-Nov-14 00:30 310 8 gusting 11 9.4
2019-Nov-14 00:20 310 9 gusting 11 9.5
2019-Nov-14 00:10 310 11 gusting 12 9.5
2019-Nov-14 00:00 310 9 gusting 11 9.5
2019-Nov-13 23:50 310 9 gusting 11 9.6
2019-Nov-13 23:40 310 9 gusting 11 9.7
2019-Nov-13 23:30 320 8 gusting 11 9.7
2019-Nov-13 23:20 320 7 gusting 8 9.7
2019-Nov-13 23:10 320 7 gusting 8 9.7
2019-Nov-13 23:00 310 6 gusting 8 9.7
2019-Nov-13 22:50 320 5 gusting 6 9.7
2019-Nov-13 22:40 310 5 gusting 6 9.8
2019-Nov-13 22:30 280 5 gusting 6 9.8
2019-Nov-13 22:20 260 5 gusting 6 9.9
2019-Nov-13 22:10 270 5 gusting 5 9.9
2019-Nov-13 22:00 280 4 gusting 4 9.9
2019-Nov-13 21:50 290 2 gusting 4 9.9
2019-Nov-13 21:40 330 4 gusting 5 9.7
2019-Nov-13 21:30 310 2 gusting 4 9.6
2019-Nov-13 21:20 300 4 gusting 5 9.7
2019-Nov-13 21:10 340 4 gusting 6 9.7
2019-Nov-13 21:00 350 4 gusting 5 9.6
2019-Nov-13 20:50 340 2 gusting 5 9.7
2019-Nov-13 20:40 300 2 gusting 5 9.5
2019-Nov-13 20:30 270 5 gusting 6 9.5
2019-Nov-13 20:20 270 5 gusting 6 9.6
2019-Nov-13 20:10 280 4 gusting 5 9.8
2019-Nov-13 20:00 300 2 gusting 4 9.8
2019-Nov-13 19:50 340 2 gusting 2 9.6
2019-Nov-13 19:40 360 2 gusting 4 9.5
2019-Nov-13 19:30 020 4 gusting 5 9.4
2019-Nov-13 19:20 020 4 gusting 6 9.4
2019-Nov-13 19:10 010 1 gusting 2 9.5
2019-Nov-13 19:00 360 2 gusting 5 9.4
2019-Nov-13 18:50 340 4 gusting 5 9.3
2019-Nov-13 18:40 320 5 gusting 6 9.2
2019-Nov-13 18:30 320 6 gusting 6 9.3
2019-Nov-13 18:20 320 6 gusting 6 9.3
2019-Nov-13 18:10 310 6 gusting 6 9.2
2019-Nov-13 18:00 330 6 gusting 6 9.1
2019-Nov-13 17:50 350 6 gusting 7 9.1
2019-Nov-13 17:40 350 6 gusting 6 9.1
2019-Nov-13 17:30 320 6 gusting 6 9.1
2019-Nov-13 17:20 300 6 gusting 7 9.1
2019-Nov-13 17:10 290 7 gusting 8 9.1
2019-Nov-13 17:00 280 7 gusting 8 9.1
2019-Nov-13 16:50 280 6 gusting 6 9.2
2019-Nov-13 16:40 290 6 gusting 6 9.2
2019-Nov-13 16:30 300 5 gusting 6 9.3
2019-Nov-13 16:20 330 5 gusting 6 9.3
2019-Nov-13 16:10 320 6 gusting 7 9.3
2019-Nov-13 16:00 330 6 gusting 7 9.2
2019-Nov-13 15:50 350 6 gusting 8 9.2
2019-Nov-13 15:40 360 8 gusting 11 9.2
2019-Nov-13 15:30 010 8 gusting 11 9.2
2019-Nov-13 15:20 360 6 gusting 9 9.3
2019-Nov-13 15:10 350 6 gusting 8 9.3
2019-Nov-13 15:00 330 6 gusting 8 9.4
2019-Nov-13 14:50 330 5 gusting 6 9.5
2019-Nov-13 14:40 330 5 gusting 6 9.4
2019-Nov-13 14:30 330 5 gusting 6 9.5
2019-Nov-13 14:20 340 5 gusting 6 9.5
2019-Nov-13 14:10 350 5 gusting 6 9.4
2019-Nov-13 14:00 340 2 gusting 4 9.3
2019-Nov-13 13:50 330 2 gusting 2 9.3
2019-Nov-13 13:40 320 2 gusting 2 9.3
2019-Nov-13 13:30 340 2 gusting 4 9.5
2019-Nov-13 13:20 330 1 gusting 2 9.5
2019-Nov-13 13:10 330 2 gusting 5 9.5
2019-Nov-13 13:00 360 4 gusting 5 9.4
2019-Nov-13 12:50 360 4 gusting 5 9.4
2019-Nov-13 12:40 010 4 gusting 5 9.3
2019-Nov-13 12:30 020 4 gusting 4 9.2
2019-Nov-13 12:20 010 4 gusting 5 9.3
2019-Nov-13 12:10 020 5 gusting 5 9.3
2019-Nov-13 12:00 010 4 gusting 5 9.3
2019-Nov-13 11:50 010 2 gusting 4 9.4
2019-Nov-13 11:40 070 1 gusting 1 9.4
2019-Nov-13 11:30 080 0 gusting 1 9.4
2019-Nov-13 11:20 010 0 gusting 1 9.4
2019-Nov-13 11:10 300 1 gusting 2 9.4
2019-Nov-13 11:00 280 1 gusting 2 9.4
2019-Nov-13 10:50 260 1 gusting 1 9.4
2019-Nov-13 10:40 270 1 gusting 4 9.4
2019-Nov-13 10:30 240 1 gusting 2 9.5
2019-Nov-13 10:20 190 2 gusting 4 9.5
2019-Nov-13 10:10 160 4 gusting 5 9.5
2019-Nov-13 10:00 150 4 gusting 6 9.6
2019-Nov-13 09:50 150 5 gusting 9 9.6
2019-Nov-13 09:40 150 6 gusting 8 9.5
2019-Nov-13 09:30 160 6 gusting 7 9.5
2019-Nov-13 09:20 160 7 gusting 8 9.5
2019-Nov-13 09:10 160 7 gusting 8 9.5
2019-Nov-13 09:00 170 7 gusting 7 9.5
2019-Nov-13 08:50 160 6 gusting 7 9.5
2019-Nov-13 08:40 160 7 gusting 9 9.5
2019-Nov-13 08:30 150 9 gusting 11 9.5
2019-Nov-13 08:20 150 9 gusting 11 9.5
2019-Nov-13 08:10 140 9 gusting 12 9.6
2019-Nov-13 08:00 130 8 gusting 11 9.6
2019-Nov-13 07:50 130 9 gusting 12 9.6
2019-Nov-13 07:40 130 11 gusting 12 9.6
2019-Nov-13 07:30 120 8 gusting 11 9.5
2019-Nov-13 07:20 120 7 gusting 9 9.5
2019-Nov-13 07:10 120 8 gusting 9 9.6
2019-Nov-13 07:00 130 9 gusting 11 9.6
2019-Nov-13 06:50 120 11 gusting 12 9.6
2019-Nov-13 06:40 120 9 gusting 11 9.6
2019-Nov-13 06:30 120 8 gusting 9 9.6
2019-Nov-13 06:20 130 9 gusting 11 9.7
2019-Nov-13 06:10 120 9 gusting 9 9.6
2019-Nov-13 06:00 120 7 gusting 9 9.6
2019-Nov-13 05:50 120 7 gusting 8 9.5
2019-Nov-13 05:40 120 7 gusting 8 9.5
2019-Nov-13 05:30 120 8 gusting 9 9.6
2019-Nov-13 05:20 130 8 gusting 11 9.7
2019-Nov-13 05:10 140 9 gusting 11 9.7
2019-Nov-13 05:00 150 8 gusting 11 9.7
2019-Nov-13 04:50 140 11 gusting 13 9.7
2019-Nov-13 04:40 140 13 gusting 14 9.7
2019-Nov-13 04:30 130 12 gusting 13 9.6
2019-Nov-13 04:20 140 12 gusting 13 9.6
2019-Nov-13 04:10 140 12 gusting 13 9.6
2019-Nov-13 04:00 140 11 gusting 12 9.6
2019-Nov-13 03:50 140 7 gusting 11 9.5
2019-Nov-13 03:40 120 7 gusting 9 9.5
2019-Nov-13 03:30 130 8 gusting 9 9.5
2019-Nov-13 03:20 120 7 gusting 8 9.4
2019-Nov-13 03:10 120 7 gusting 8 9.5
2019-Nov-13 03:00 110 6 gusting 8 9.4
2019-Nov-13 02:50 110 6 gusting 7 9.4
2019-Nov-13 02:40 130 6 gusting 7 9.4
2019-Nov-13 02:30 130 6 gusting 7 9.4
2019-Nov-13 02:20 140 7 gusting 8 9.5
2019-Nov-13 02:10 140 6 gusting 7 9.4
2019-Nov-13 02:00 130 6 gusting 7 9.4
2019-Nov-13 01:50 120 7 gusting 8 9.4
2019-Nov-13 01:40 130 8 gusting 12 9.4
2019-Nov-13 01:30 130 11 gusting 12 9.4
2019-Nov-13 01:20 140 11 gusting 13 9.3
2019-Nov-13 01:10 140 12 gusting 13 9.3
2019-Nov-13 01:00 130 11 gusting 12 9.2
2019-Nov-13 00:50 130 12 gusting 13 9.2
2019-Nov-13 00:40 140 12 gusting 13 9.2
2019-Nov-13 00:30 140 12 gusting 13 9.2
2019-Nov-13 00:20 150 12 gusting 13 9.2
2019-Nov-13 00:10 150 12 gusting 13 9.2
2019-Nov-13 00:00 150 11 gusting 13 9.3
2019-Nov-12 23:50 150 11 gusting 12 9.3
2019-Nov-12 23:40 140 11 gusting 12 9.3
2019-Nov-12 23:30 130 11 gusting 13 9.3
2019-Nov-12 23:20 130 12 gusting 13 9.4
2019-Nov-12 23:10 130 12 gusting 13 9.3
2019-Nov-12 23:00 130 13 gusting 14 9.3
2019-Nov-12 22:50 140 12 gusting 13 9.3
2019-Nov-12 22:40 130 12 gusting 13 9.2
2019-Nov-12 22:30 130 12 gusting 13 9.2
2019-Nov-12 22:20 140 12 gusting 13 9.2
2019-Nov-12 22:10 130 12 gusting 13 9.1
2019-Nov-12 22:00 130 11 gusting 12 9.1
2019-Nov-12 21:50 130 11 gusting 13 9.0
2019-Nov-12 21:40 140 11 gusting 13 9.0
2019-Nov-12 21:30 140 8 gusting 12 9.2
2019-Nov-12 21:20 130 8 gusting 12 9.2
2019-Nov-12 21:10 120 8 gusting 11 9.3
2019-Nov-12 21:00 130 12 gusting 13 9.3
2019-Nov-12 20:50 130 13 gusting 17 9.3
2019-Nov-12 20:40 130 13 gusting 14 9.3
2019-Nov-12 20:30 120 12 gusting 14 9.2
2019-Nov-12 20:20 120 12 gusting 13 9.2
2019-Nov-12 20:10 120 11 gusting 13 9.1
2019-Nov-12 20:00 120 9 gusting 12 9.0
2019-Nov-12 19:50 120 11 gusting 13 9.0
2019-Nov-12 19:40 120 11 gusting 12 8.9
2019-Nov-12 19:30 120 8 gusting 12 8.8
2019-Nov-12 19:20 120 7 gusting 8 8.6
2019-Nov-12 19:10 110 7 gusting 9 8.6
2019-Nov-12 19:00 120 7 gusting 8 8.6
2019-Nov-12 18:50 110 7 gusting 8 8.6
2019-Nov-12 18:40 120 7 gusting 8 8.6
2019-Nov-12 18:30 120 6 gusting 7 8.6
2019-Nov-12 18:20 120 5 gusting 6 8.5
2019-Nov-12 18:10 110 6 gusting 8 8.5
2019-Nov-12 18:00 110 7 gusting 9 8.4
2019-Nov-12 17:50 110 8 gusting 9 8.4
2019-Nov-12 17:40 100 7 gusting 8 8.3
2019-Nov-12 17:30 110 7 gusting 8 8.4
2019-Nov-12 17:20 110 7 gusting 8 8.4
2019-Nov-12 17:10 130 6 gusting 7 8.4
2019-Nov-12 17:00 130 6 gusting 7 8.4
2019-Nov-12 16:50 130 6 gusting 7 8.4
2019-Nov-12 16:40 120 7 gusting 8 8.4
2019-Nov-12 16:30 120 6 gusting 7 8.3
2019-Nov-12 16:20 130 6 gusting 6 8.3
2019-Nov-12 16:10 130 5 gusting 6 8.3
2019-Nov-12 16:00 120 5 gusting 5 8.3